Terminal Aerodrome Forecast
Issued by NWS

Current Version | Previous Version | Text Only | Print | Product List | Glossary On
Versions: 1 2 3 4 5 6 7 8 9 10 11 12 13 14 15 16 17 18 19 20 21 22 23 24 25 26 27
830
FTUS43 KLOT 282342
TAFDPA
TAF
KDPA 282342Z 2900/2924 07005KT P6SM OVC035
     FM290200 03008KT P6SM OVC025
     FM291000 02011KT P6SM OVC030
     FM291700 05015G25KT P6SM -SHRA OVC020
     FM292000 05020G30KT 3SM RA BR OVC008=

USA.gov is the U.S. government's official web portal to all federal, state and local government web resources and services.